Aviation Digital Data Service (ADDS)

Output produced by METARs form (0251 UTC 21 September 2021)
found at http://aviationweather.gov/metar/data/
 
LFBL 210230Z AUTO 01007KT 6000 OVC003 13/13 Q1025 TEMPO 0500 FG VV///
TAF AMD LFBL 210159Z 2101/2124 VRB03KT 9999 SCT006 BKN012 
     TEMPO 2102/2109 3000 BR OVC002 
     PROB40 
     TEMPO 2103/2107 0500 FG VV/// 
     BECMG 2110/2112 SCT015 BKN025 
     BECMG 2115/2117 CAVOK